Portada
METAR-TAF:

METAR-TAF

Aeroports :

São Gabriel da Cachoeira, Amazones, Brasil

latitud: 00-08S, longitud: 067-05W, altitud: 90 m

Observació

L'informe es va fer fa 57 minuts, a les 18:00 UTC
Vent 5 kt del Est
Temperatura 34°C
Humitat 56%
Pressió 1006 hPa
Visibilitat 10 km o més
Núvols disperses a una alçada de 2000 ft
Escasses núvols a una alçada de 2500 ft, Cumulus congestus.
Cel ennuvolat a una alçada de 8000 ft

METAR: SBUA 181800Z 10005KT 9999 SCT020 FEW025TCU BKN080 34/24 Q1006

Hora: 14:57 (18:57 UTC)


TAF: manca

Observacions i pronòstics meteorològics de més de 4000 aeroports (METAR i TAF).

Les estacions disponibles són els punts grocs i vermells al mapa.

Posi el ratolí al punt desitjat per veure el nom de l'estació.

Feu clic per veure les observacions i els pronòstics meteorològics.

Per canviar el mapa: feu clic els botons verds amb una creu de color negre per apropar; al botó verd amb un guió per allunyar la imatge; o en les fletxes verdes per a mapes adjacents.


METAR-TAF: